Terminal Aerodrome Forecast
Issued by NWS

Home | Current Version | Previous Version | Text Only | Print | Product List | Glossary On
Versions: 1 2 3 4 5 6 7 8 9 10 11 12 13 14 15 16 17 18 19
000
FTUS46 KLOX 302341
TAFLGB
TAF
KLGB 302341Z 3100/3124 30007KT P6SM SCT080 SCT120
     FM310800 VRB03KT P6SM SCT120
     FM311900 17008KT P6SM SCT120
     FM312300 30008KT P6SM SCT120=

USA.gov is the U.S. government's official web portal to all federal, state and local government web resources and services.